Wawona, California

10:04 PM PDT on July 26, 2016 (GMT -0700)
Yosemite Forest Lodge | | Change Station

Elev 5115 ft 37.48 °N, 119.64 °W | Updated 4 minutes ago

Clear
Clear
64.5 °F
Feels Like 64.5 °F
N
0.0
Wind Variable Wind from NW
Gusts 1.0 mph

Today
High -- | Low -- °F
--% Chance of Precip.
Yesterday
High -- | Low -- °F
Precip. -- in
Pressure 30.33 in
Visibility 10.0 miles
Clouds
Dew Point 49 °F
Humidity 58%
Rainfall 0.00 in
Snow Depth Not available.
5:58 AM 8:12 PM
Waning Gibbous, 47% visible
METAR KMMH 270455Z AUTO 00000KT 10SM 22/M03 A3033 RMK AO2 T02151026
Pressure 30.33 in
Visibility 10.0 miles
Clouds
Dew Point 49 °F
Humidity 58%
Rainfall 0.00 in
Snow Depth Not available.
5:58 AM 8:12 PM
Waning Gibbous, 47% visible
METAR KMMH 270455Z AUTO 00000KT 10SM 22/M03 A3033 RMK AO2 T02151026

10-Day Weather Forecast

Almanac

Astronomy

Jul. 26, 2016 Rise Set
Actual Time
Civil Twilight
Nautical Twilight
Astronomical Twilight
Moon
Length of Visible Light
Length of Day
Tomorrow will be .
, % of the Moon is Illuminated

Today's Extremes

State Highs State Lows

Community

WunderPhotos

Upload Photos

1,927,814 photos uploaded!

WunderBlog® & News

Nearby

Air Quality

  Air Quality AQ Index Pollutant
Not available.

Snow Depth

Station Depth Elevation

Earthquake Activity

City Distance Mag. Time & Date
Minimum magnitude displayed is 2.5.

Coastal Water Temperatures

Place Temperature

Stations

Nearby Weather Stations

Station Location Temp. Windchill Dew Point Humidity Wind Precip. Elev Updated Type
                   

Watches & Warnings

There are currently no watches in effect.